Time;durP1;ratioP1;P1;durP2;ratioP2;P2;SDS_P1;SDS_P2;PMS_P1;PMS_P2;Temp;Humidity;BMP_temperature;BMP_pressure;BME280_temperature;BME280_humidity;BME280_pressure;Samples;Min_cycle;Max_cycle;Signal;HPM_P1;HPM_P2
2022/02/04 00:25:02;;;;;;;6.45;4.60;;;5.50;99.90;;;;;;5042656;28;20594;-48
2022/02/04 00:27:30;;;;;;;10.30;5.30;;;5.50;99.90;;;;;;5042582;28;20278;-50
2022/02/04 00:30:09;;;;;;;12.73;6.53;;;5.50;99.90;;;;;;5041364;28;20198;-46
2022/02/04 00:32:39;;;;;;;9.85;6.38;;;5.50;99.90;;;;;;5040604;28;20310;-51
2022/02/04 00:38:10;;;;;;;9.05;5.60;;;5.40;99.90;;;;;;5025046;28;20196;-51
2022/02/04 00:40:42;;;;;;;9.55;6.20;;;5.40;99.90;;;;;;5040699;28;20199;-49
2022/02/04 00:43:13;;;;;;;5.60;5.05;;;5.30;99.90;;;;;;5040514;28;20445;-50
2022/02/04 00:51:25;;;;;;;7.40;5.50;;;5.30;99.90;;;;;;5040658;28;20201;-54
2022/02/04 00:54:27;;;;;;;7.88;6.10;;;5.30;99.90;;;;;;5078739;22;20247;-53
2022/02/04 01:13:32;;;;;;;10.27;6.40;;;5.40;99.90;;;;;;5059929;28;20229;-52
2022/02/04 01:27:07;;;;;;;7.43;4.82;;;5.70;99.90;;;;;;5059931;28;20424;-53
2022/02/04 01:29:45;;;;;;;9.25;5.10;;;5.70;99.90;;;;;;5059762;28;20264;-52
2022/02/04 01:32:13;;;;;;;11.52;5.35;;;5.70;99.90;;;;;;5059643;28;20245;-53
2022/02/04 01:34:41;;;;;;;6.82;4.57;;;5.70;99.90;;;;;;5059791;28;20500;-52
2022/02/04 01:37:08;;;;;;;9.30;5.00;;;5.70;99.90;;;;;;5059947;28;20496;-50
2022/02/04 01:39:36;;;;;;;11.73;5.78;;;5.80;99.90;;;;;;5059644;28;20196;-53
2022/02/04 01:42:04;;;;;;;6.75;5.45;;;5.80;99.90;;;;;;5059816;28;20426;-52
2022/02/04 01:44:31;;;;;;;7.00;5.07;;;5.80;99.90;;;;;;5059957;28;20436;-53
2022/02/04 01:46:58;;;;;;;9.70;5.88;;;5.80;99.90;;;;;;5059911;28;20203;-51
2022/02/04 01:49:28;;;;;;;18.88;6.45;;;5.90;99.90;;;;;;5059808;28;20382;-55
2022/02/04 01:51:55;;;;;;;12.52;6.05;;;6.10;99.90;;;;;;5059332;28;20273;-52
2022/02/04 01:54:23;;;;;;;9.60;4.97;;;6.20;99.90;;;;;;5059721;28;20206;-53
2022/02/04 01:56:51;;;;;;;7.55;6.07;;;6.10;99.90;;;;;;5061172;28;20402;-48
2022/02/04 01:59:19;;;;;;;7.57;4.60;;;6.00;99.90;;;;;;5060311;28;20260;-51
2022/02/04 02:01:46;;;;;;;8.63;6.45;;;5.90;99.90;;;;;;5059697;28;20566;-50
2022/02/04 02:04:14;;;;;;;5.47;4.45;;;5.80;99.90;;;;;;5059967;28;20419;-53
2022/02/04 02:09:25;;;;;;;7.15;5.25;;;5.80;99.90;;;;;;5059839;28;20220;-50
2022/02/04 02:11:56;;;;;;;8.30;5.15;;;5.60;99.90;;;;;;5059793;28;20224;-52
2022/02/04 02:14:26;;;;;;;8.63;5.15;;;5.70;99.90;;;;;;5064170;28;20195;-52
2022/02/04 02:36:37;;;;;;;6.05;3.72;;;6.30;99.90;;;;;;5063496;28;20203;-49
2022/02/04 02:44:16;;;;;;;8.27;4.40;;;6.60;99.90;;;;;;5063018;28;20226;-50
2022/02/04 02:46:56;;;;;;;9.38;6.22;;;6.50;99.90;;;;;;5063182;28;20206;-49
2022/02/04 02:49:43;;;;;;;10.73;5.40;;;6.50;99.90;;;;;;5063098;28;20205;-51
2022/02/04 02:52:19;;;;;;;7.95;5.07;;;6.30;99.90;;;;;;5062481;28;20281;-48
2022/02/04 02:58:36;;;;;;;14.15;4.72;;;6.40;99.90;;;;;;5062874;28;20372;-50
2022/02/04 03:00:56;;;;;;;11.35;6.07;;;6.20;99.90;;;;;;5053872;28;20199;-48
2022/02/04 03:03:24;;;;;;;7.45;5.13;;;6.10;99.90;;;;;;5063299;28;20285;-49
2022/02/04 03:05:52;;;;;;;7.68;5.50;;;6.20;99.90;;;;;;5063896;28;20229;-54
2022/02/04 03:08:21;;;;;;;11.93;4.90;;;6.20;99.90;;;;;;5067086;28;20202;-55
2022/02/04 03:10:54;;;;;;;8.30;5.22;;;6.60;99.90;;;;;;5063947;28;20207;-53
2022/02/04 03:13:26;;;;;;;8.02;4.70;;;6.80;99.90;;;;;;5063246;28;20230;-57
2022/02/04 03:16:04;;;;;;;12.27;7.25;;;6.70;99.90;;;;;;5064051;28;20202;-49
2022/02/04 03:18:35;;;;;;;8.75;6.68;;;6.40;99.90;;;;;;5064390;28;20415;-52
2022/02/04 03:21:11;;;;;;;5.97;5.30;;;6.30;99.90;;;;;;5062736;28;20218;-51
2022/02/04 03:23:41;;;;;;;7.80;5.28;;;6.30;99.90;;;;;;5060196;28;20259;-48
2022/02/04 03:26:14;;;;;;;9.07;5.03;;;6.20;99.90;;;;;;5063061;28;20218;-48
2022/02/04 03:28:42;;;;;;;9.82;5.15;;;6.10;99.90;;;;;;5062541;28;20225;-50
2022/02/04 03:31:09;;;;;;;5.97;4.00;;;6.00;99.90;;;;;;5062572;28;20201;-49
2022/02/04 03:33:38;;;;;;;11.10;4.40;;;6.00;99.90;;;;;;5062728;28;20533;-48
2022/02/04 03:36:05;;;;;;;13.85;6.13;;;6.00;99.90;;;;;;5062467;28;20449;-49
2022/02/04 03:38:33;;;;;;;6.95;4.85;;;6.10;99.90;;;;;;5061871;28;20202;-50
2022/02/04 03:41:00;;;;;;;5.13;4.53;;;6.00;99.90;;;;;;5061810;28;20195;-49
2022/02/04 03:43:27;;;;;;;8.73;5.60;;;6.10;99.90;;;;;;5061763;28;20321;-49
2022/02/04 03:45:54;;;;;;;6.65;4.25;;;6.00;99.90;;;;;;5061896;28;20257;-49
2022/02/04 03:48:22;;;;;;;6.53;4.90;;;6.10;99.90;;;;;;5061899;28;20215;-52
2022/02/04 03:50:49;;;;;;;7.22;5.22;;;6.10;99.90;;;;;;5061709;28;20244;-54
2022/02/04 03:53:16;;;;;;;7.55;5.03;;;6.00;99.90;;;;;;5061429;28;20242;-48
2022/02/04 03:55:44;;;;;;;9.55;4.05;;;5.90;99.90;;;;;;5061807;28;20203;-55
2022/02/04 03:58:12;;;;;;;6.40;4.38;;;5.90;99.90;;;;;;5061507;28;20401;-52
2022/02/04 04:00:40;;;;;;;11.98;4.80;;;5.80;99.90;;;;;;5061379;28;20195;-52
2022/02/04 04:03:08;;;;;;;6.60;4.65;;;5.80;99.90;;;;;;5061353;28;20223;-50
2022/02/04 04:05:41;;;;;;;8.05;3.92;;;5.90;99.90;;;;;;5061440;28;20474;-53
2022/02/04 04:08:09;;;;;;;10.27;4.47;;;5.80;99.90;;;;;;5061477;28;20203;-49
2022/02/04 04:10:41;;;;;;;9.45;5.32;;;6.00;99.90;;;;;;5061373;28;20203;-52
2022/02/04 04:13:10;;;;;;;10.60;4.88;;;6.10;99.90;;;;;;5061557;28;20471;-54
2022/02/04 04:15:38;;;;;;;14.60;6.35;;;6.10;99.90;;;;;;5061581;28;20231;-48
2022/02/04 04:18:06;;;;;;;7.85;4.70;;;6.00;99.90;;;;;;5061443;28;20224;-54
2022/02/04 04:20:34;;;;;;;13.20;5.60;;;5.90;99.90;;;;;;5063975;28;20198;-54
2022/02/04 04:23:01;;;;;;;5.72;4.50;;;5.90;99.90;;;;;;5062134;28;20268;-52
2022/02/04 04:25:29;;;;;;;9.50;5.00;;;6.10;99.90;;;;;;5061350;28;20513;-49
2022/02/04 04:27:57;;;;;;;6.07;5.28;;;6.10;99.90;;;;;;5061424;28;20210;-52
2022/02/04 04:30:25;;;;;;;8.77;5.30;;;6.10;99.90;;;;;;5061273;28;20397;-50
2022/02/04 04:32:54;;;;;;;10.95;4.70;;;6.20;99.90;;;;;;5061147;28;20552;-54
2022/02/04 04:35:25;;;;;;;7.45;4.88;;;6.10;99.90;;;;;;5060582;28;20199;-53
2022/02/04 05:29:17;;;;;;;8.27;7.55;;;6.60;99.90;;;;;;5060196;28;20285;-51
2022/02/04 05:31:45;;;;;;;13.10;10.05;;;6.50;99.90;;;;;;5059795;28;20209;-54
2022/02/04 05:34:19;;;;;;;12.63;9.20;;;6.70;99.90;;;;;;5059811;28;20230;-51
2022/02/04 05:36:53;;;;;;;13.10;9.43;;;6.70;99.90;;;;;;5059813;28;20485;-56
2022/02/04 05:39:26;;;;;;;12.40;8.68;;;6.70;99.90;;;;;;5060250;28;20199;-50
2022/02/04 05:41:53;;;;;;;10.40;8.98;;;6.50;99.90;;;;;;5059323;28;20198;-49
2022/02/04 05:44:20;;;;;;;16.17;9.85;;;6.70;99.90;;;;;;5059875;28;20208;-49
2022/02/04 05:46:56;;;;;;;8.15;7.22;;;6.70;99.90;;;;;;5060113;28;20203;-54
2022/02/04 05:49:25;;;;;;;11.65;8.68;;;6.80;99.90;;;;;;5064067;28;20450;-53
2022/02/04 05:52:09;;;;;;;15.18;10.85;;;6.80;99.90;;;;;;5063465;28;20207;-48
2022/02/04 05:57:26;;;;;;;9.50;7.75;;;7.10;99.90;;;;;;5063791;28;20242;-53
2022/02/04 06:03:24;;;;;;;14.50;9.75;;;7.30;99.90;;;;;;5063498;28;20384;-49
2022/02/04 06:05:45;;;;;;;8.70;7.85;;;7.40;99.90;;;;;;5060109;28;20225;-55
2022/02/04 06:24:08;;;;;;;16.63;9.20;;;7.40;99.90;;;;;;5063145;28;20199;-53
2022/02/04 06:26:36;;;;;;;11.57;7.43;;;7.40;99.90;;;;;;5063371;28;20203;-52
2022/02/04 06:29:04;;;;;;;11.90;9.05;;;7.30;99.90;;;;;;5062836;28;20206;-52
2022/02/04 06:31:31;;;;;;;16.92;9.30;;;7.50;99.90;;;;;;5063045;28;20245;-53
2022/02/04 06:33:59;;;;;;;15.77;9.45;;;7.50;99.90;;;;;;5062866;28;20550;-54
2022/02/04 06:36:26;;;;;;;11.85;7.13;;;7.60;99.90;;;;;;5062965;28;20374;-49
2022/02/04 06:38:54;;;;;;;9.68;7.35;;;7.50;99.90;;;;;;5064888;28;20196;-52
2022/02/04 06:41:21;;;;;;;9.13;7.22;;;7.20;99.90;;;;;;5067696;28;20195;-53
2022/02/04 06:43:48;;;;;;;11.00;8.43;;;7.20;99.90;;;;;;5063999;28;20269;-51
2022/02/04 06:46:15;;;;;;;10.90;8.45;;;7.40;99.90;;;;;;5062878;28;20245;-49
2022/02/04 06:48:49;;;;;;;12.00;8.88;;;7.50;99.90;;;;;;5062576;28;20425;-52
2022/02/04 06:51:16;;;;;;;12.60;8.50;;;7.50;99.90;;;;;;5062540;28;20206;-55
2022/02/04 06:53:44;;;;;;;11.68;8.10;;;7.50;99.90;;;;;;5096326;22;20236;-51
2022/02/04 06:56:11;;;;;;;11.10;7.68;;;7.40;99.90;;;;;;5081779;28;20202;-48
2022/02/04 06:58:39;;;;;;;12.98;7.50;;;7.50;99.90;;;;;;5081001;28;20493;-55
2022/02/04 07:01:06;;;;;;;10.25;8.38;;;7.40;99.90;;;;;;5082508;28;20194;-49
2022/02/04 07:03:34;;;;;;;18.05;7.68;;;7.20;99.90;;;;;;5082308;28;20294;-48
2022/02/04 07:06:04;;;;;;;9.95;8.25;;;7.10;99.90;;;;;;5082730;28;20312;-50
2022/02/04 07:08:48;;;;;;;13.40;10.23;;;6.90;99.90;;;;;;5082275;28;20228;-48
2022/02/04 07:19:49;;;;;;;17.08;8.95;;;7.00;99.90;;;;;;5081931;28;20541;-48
2022/02/04 07:22:22;;;;;;;11.52;8.02;;;6.90;99.90;;;;;;5082157;28;20464;-50
2022/02/04 07:24:57;;;;;;;13.60;10.25;;;6.80;99.90;;;;;;5082207;28;20248;-48
2022/02/04 07:27:29;;;;;;;15.32;9.15;;;6.90;99.90;;;;;;5081829;28;20199;-47
2022/02/04 07:29:57;;;;;;;11.60;9.43;;;7.10;99.90;;;;;;5081831;28;20263;-48
2022/02/04 07:43:04;;;;;;;15.73;10.07;;;7.30;99.90;;;;;;5081714;28;20219;-49
2022/02/04 07:45:34;;;;;;;11.73;9.10;;;7.40;99.90;;;;;;5081487;28;20194;-47
2022/02/04 07:48:04;;;;;;;15.15;9.70;;;7.50;99.90;;;;;;5081593;28;20201;-47
2022/02/04 07:50:32;;;;;;;14.63;10.02;;;7.70;99.90;;;;;;5079998;28;20481;-51
2022/02/04 07:52:59;;;;;;;27.48;11.95;;;7.70;99.90;;;;;;5081487;28;20512;-51
2022/02/04 07:55:27;;;;;;;17.88;11.15;;;7.70;99.90;;;;;;5081343;28;20209;-47
2022/02/04 07:57:54;;;;;;;13.43;9.60;;;7.80;99.90;;;;;;5081201;28;20203;-49
2022/02/04 08:00:22;;;;;;;11.23;9.45;;;7.70;99.90;;;;;;5080946;28;20387;-55
2022/02/04 08:02:51;;;;;;;16.50;11.20;;;7.50;99.90;;;;;;5081083;28;20277;-51
2022/02/04 08:05:22;;;;;;;13.93;10.45;;;7.80;99.90;;;;;;5081254;28;20210;-52
2022/02/04 08:08:12;;;;;;;14.20;10.05;;;8.00;99.90;;;;;;5081326;28;20199;-51
2022/02/04 08:11:14;;;;;;;12.63;10.43;;;7.90;99.90;;;;;;5080619;28;20199;-47
2022/02/04 08:38:34;;;;;;;12.00;8.73;;;8.30;99.90;;;;;;5080767;28;20248;-50
2022/02/04 08:56:49;;;;;;;14.30;10.15;;;8.90;99.90;;;;;;5079420;28;20195;-47
2022/02/04 09:02:15;;;;;;;13.30;10.23;;;9.00;99.90;;;;;;5080411;28;20198;-46
2022/02/04 09:04:47;;;;;;;11.82;7.70;;;8.90;99.90;;;;;;5080364;28;20508;-48
2022/02/04 09:07:17;;;;;;;11.10;8.55;;;8.90;99.90;;;;;;5080285;28;20206;-46
2022/02/04 09:20:38;;;;;;;12.10;9.55;;;9.70;99.90;;;;;;5080348;28;20204;-47
2022/02/04 09:23:05;;;;;;;8.48;6.90;;;9.70;99.90;;;;;;5078761;28;20288;-50
2022/02/04 09:25:32;;;;;;;12.80;9.38;;;9.50;99.90;;;;;;5079995;28;20245;-46
2022/02/04 09:27:59;;;;;;;13.88;8.10;;;9.30;99.90;;;;;;5080175;28;20191;-52
2022/02/04 09:30:30;;;;;;;12.40;8.68;;;9.60;99.90;;;;;;5079498;28;20206;-47
2022/02/04 09:32:57;;;;;;;8.55;7.65;;;9.80;99.90;;;;;;5080078;28;20514;-49
2022/02/04 09:35:25;;;;;;;13.45;9.23;;;9.80;99.90;;;;;;5079812;28;20418;-48
2022/02/04 09:37:53;;;;;;;11.25;8.65;;;10.00;99.90;;;;;;5080191;28;20201;-49
2022/02/04 09:40:22;;;;;;;10.30;7.57;;;10.20;99.90;;;;;;5079339;28;20205;-54
2022/02/04 09:42:50;;;;;;;9.82;8.05;;;10.30;99.90;;;;;;5079784;28;20223;-53
2022/02/04 09:45:20;;;;;;;14.48;9.63;;;10.20;99.90;;;;;;5079599;28;20201;-51
2022/02/04 09:47:59;;;;;;;12.90;8.35;;;10.40;99.90;;;;;;5080158;28;20196;-47
2022/02/04 09:50:29;;;;;;;12.85;7.90;;;10.40;99.90;;;;;;5079599;28;20425;-52
2022/02/04 10:07:26;;;;;;;9.50;7.75;;;10.10;99.90;;;;;;5079627;28;20189;-50
2022/02/04 10:18:11;;;;;;;10.48;7.97;;;10.30;99.90;;;;;;5079758;28;20434;-51
2022/02/04 10:20:39;;;;;;;9.95;7.80;;;10.30;99.90;;;;;;5079066;28;20203;-48
2022/02/04 10:23:07;;;;;;;8.52;7.00;;;10.20;99.90;;;;;;5079261;28;20253;-51
2022/02/04 10:25:40;;;;;;;7.80;5.72;;;10.00;99.90;;;;;;5079690;28;20202;-50
2022/02/04 10:28:26;;;;;;;8.63;7.22;;;10.00;99.90;;;;;;5080435;28;20227;-48
2022/02/04 10:31:10;;;;;;;12.43;7.13;;;9.80;99.90;;;;;;5079589;28;20195;-50
2022/02/04 10:33:54;;;;;;;7.95;6.80;;;9.50;99.90;;;;;;5081243;28;20280;-49
2022/02/04 10:36:57;;;;;;;12.85;7.10;;;9.70;99.90;;;;;;5083342;28;20203;-49
2022/02/04 10:39:36;;;;;;;8.52;7.72;;;9.90;99.90;;;;;;5083097;28;20541;-47
2022/02/04 10:45:08;;;;;;;8.15;6.63;;;10.10;99.90;;;;;;5082838;28;20217;-50
2022/02/04 10:48:06;;;;;;;10.85;7.43;;;10.10;99.90;;;;;;5082452;28;20207;-49
2022/02/04 10:53:49;;;;;;;8.18;6.43;;;10.30;99.90;;;;;;5082556;28;20250;-48
2022/02/04 10:59:31;;;;;;;9.82;7.65;;;10.30;99.90;;;;;;5082839;28;20202;-51
2022/02/04 11:02:33;;;;;;;7.22;6.53;;;10.30;99.90;;;;;;5082602;28;20201;-47
2022/02/04 11:35:12;;;;;;;7.93;5.43;;;10.60;99.90;;;;;;5082655;28;20231;-54
2022/02/04 11:51:01;;;;;;;8.85;6.85;;;9.90;99.90;;;;;;5082133;28;20230;-50
2022/02/04 11:52:47;;;;;;;7.00;5.38;;;9.90;99.90;;;;;;5082583;28;20232;-51
2022/02/04 11:55:14;;;;;;;7.05;6.35;;;10.10;99.90;;;;;;5086988;28;20449;-57
2022/02/04 11:57:58;;;;;;;10.15;6.03;;;10.20;99.90;;;;;;5082405;28;20540;-52
2022/02/04 12:00:30;;;;;;;6.85;6.10;;;10.30;99.90;;;;;;5081470;28;20207;-47
2022/02/04 12:02:58;;;;;;;9.43;6.00;;;10.50;99.90;;;;;;5081159;28;20285;-48
2022/02/04 12:05:27;;;;;;;7.32;6.38;;;10.80;99.90;;;;;;5081219;28;20208;-50
2022/02/04 12:08:19;;;;;;;9.98;6.30;;;11.10;99.90;;;;;;5081235;28;20205;-53
2022/02/04 12:10:52;;;;;;;9.98;5.55;;;11.10;99.90;;;;;;5078001;28;20340;-50
2022/02/04 12:13:21;;;;;;;8.82;5.50;;;11.10;99.90;;;;;;5080992;28;20235;-52
2022/02/04 12:16:07;;;;;;;13.30;7.25;;;11.00;99.90;;;;;;5080902;28;20223;-49
2022/02/04 12:18:43;;;;;;;8.65;5.80;;;10.90;99.90;;;;;;5080857;28;20270;-50
2022/02/04 12:21:13;;;;;;;9.23;6.57;;;10.70;99.90;;;;;;5080571;28;20352;-54
2022/02/04 12:23:46;;;;;;;6.25;5.65;;;10.70;99.90;;;;;;5081047;28;20410;-51
2022/02/04 12:26:20;;;;;;;6.95;6.25;;;10.60;99.90;;;;;;5081264;28;20280;-46
2022/02/04 12:28:50;;;;;;;9.18;7.28;;;10.50;99.90;;;;;;5080826;28;20200;-51
2022/02/04 12:31:30;;;;;;;10.85;8.32;;;10.40;99.90;;;;;;5080545;28;20222;-52
2022/02/04 12:34:02;;;;;;;9.15;6.88;;;10.50;99.90;;;;;;5081042;28;20246;-50
2022/02/04 12:36:34;;;;;;;13.02;7.07;;;10.60;99.90;;;;;;5080820;28;20424;-47
2022/02/04 12:39:13;;;;;;;8.80;6.18;;;10.50;99.90;;;;;;5080895;28;20432;-52
2022/02/04 12:41:55;;;;;;;11.50;6.57;;;10.40;99.90;;;;;;5080590;28;20452;-56
2022/02/04 12:44:28;;;;;;;8.60;5.95;;;10.50;99.90;;;;;;5080402;28;20221;-51
2022/02/04 12:47:00;;;;;;;7.95;5.40;;;10.30;99.90;;;;;;5080841;28;20200;-49
2022/02/04 12:49:30;;;;;;;9.60;6.70;;;10.40;99.90;;;;;;5080484;28;20403;-45
2022/02/04 12:54:43;;;;;;;12.40;7.13;;;10.60;99.90;;;;;;5083944;22;20240;-49
2022/02/04 13:08:19;;;;;;;7.93;6.32;;;10.20;99.90;;;;;;5061525;28;20254;-50
2022/02/04 13:11:17;;;;;;;8.05;6.97;;;10.30;99.90;;;;;;5062137;28;20287;-51
2022/02/04 13:13:48;;;;;;;7.80;7.03;;;10.30;99.90;;;;;;5064725;28;20278;-50
2022/02/04 13:16:22;;;;;;;9.07;6.82;;;10.20;99.90;;;;;;5063495;28;20221;-50
2022/02/04 13:18:49;;;;;;;9.40;6.45;;;10.10;99.90;;;;;;5059258;28;20215;-49
2022/02/04 13:21:17;;;;;;;10.02;6.90;;;9.70;99.90;;;;;;5062145;28;20197;-51
2022/02/04 13:23:46;;;;;;;8.57;6.68;;;9.70;99.90;;;;;;5064567;28;20217;-47
2022/02/04 13:26:14;;;;;;;10.50;8.55;;;9.50;99.90;;;;;;5061461;28;20209;-46
2022/02/04 13:28:44;;;;;;;12.05;7.18;;;9.30;99.90;;;;;;5060596;28;20200;-48
2022/02/04 13:31:13;;;;;;;8.75;6.95;;;9.20;99.90;;;;;;5060599;28;20306;-48
2022/02/04 13:33:44;;;;;;;7.82;6.88;;;9.20;99.90;;;;;;5060709;28;20231;-47
2022/02/04 13:36:30;;;;;;;7.32;6.60;;;9.20;99.90;;;;;;5060291;28;20222;-48
2022/02/04 13:39:20;;;;;;;12.95;7.63;;;9.20;99.90;;;;;;5060274;28;20506;-51
2022/02/04 13:44:57;;;;;;;10.30;7.50;;;8.60;99.90;;;;;;5060287;28;20376;-49
2022/02/04 13:53:12;;;;;;;9.35;6.43;;;9.10;99.90;;;;;;5061023;28;20554;-48
2022/02/04 13:55:55;;;;;;;6.40;5.10;;;9.10;99.90;;;;;;5062422;28;20598;-47
2022/02/04 14:01:08;;;;;;;9.18;6.65;;;9.10;99.90;;;;;;5060113;28;20272;-48
2022/02/04 14:03:48;;;;;;;14.07;7.85;;;9.10;99.90;;;;;;5059716;28;20219;-49
2022/02/04 14:06:19;;;;;;;10.50;7.53;;;9.20;99.90;;;;;;5060494;28;20202;-46
2022/02/04 14:08:52;;;;;;;15.05;7.93;;;9.10;99.90;;;;;;5062262;28;20267;-48
2022/02/04 14:11:36;;;;;;;10.30;6.60;;;9.20;99.90;;;;;;5064480;28;20208;-49
2022/02/04 14:14:09;;;;;;;9.82;7.05;;;9.10;99.90;;;;;;5064061;28;20223;-48
2022/02/04 14:16:38;;;;;;;11.20;7.80;;;9.30;99.90;;;;;;5064264;28;20236;-54
2022/02/04 14:19:06;;;;;;;14.52;7.30;;;9.10;99.90;;;;;;5063716;28;20200;-47
2022/02/04 14:21:35;;;;;;;12.30;6.50;;;9.20;99.90;;;;;;5064232;28;20267;-47
2022/02/04 14:24:10;;;;;;;7.88;5.95;;;9.10;99.90;;;;;;5063895;28;20396;-49
2022/02/04 14:26:43;;;;;;;12.95;6.53;;;9.10;99.90;;;;;;5066107;28;20267;-50
2022/02/04 14:31:56;;;;;;;9.32;6.10;;;8.90;99.90;;;;;;5063765;28;20207;-50
2022/02/04 14:51:11;;;;;;;9.93;7.40;;;8.80;99.90;;;;;;5063790;28;20231;-49
2022/02/04 14:53:49;;;;;;;12.95;7.07;;;9.10;99.90;;;;;;5063493;28;20471;-48
2022/02/04 15:04:45;;;;;;;12.77;6.00;;;8.90;99.90;;;;;;5062326;28;20605;-49
2022/02/04 15:07:13;;;;;;;14.77;8.23;;;8.70;99.90;;;;;;5062949;28;20205;-50
2022/02/04 15:09:49;;;;;;;10.32;6.35;;;8.70;99.90;;;;;;5063112;28;20196;-48
2022/02/04 15:12:17;;;;;;;10.85;6.68;;;8.70;99.90;;;;;;5062579;28;20202;-51
2022/02/04 15:14:44;;;;;;;8.75;5.70;;;8.50;99.90;;;;;;5062995;28;20215;-46
2022/02/04 15:17:12;;;;;;;9.23;6.55;;;8.50;99.90;;;;;;5063178;28;20196;-48
2022/02/04 15:19:42;;;;;;;8.88;7.50;;;8.50;99.90;;;;;;5062984;28;20328;-48
2022/02/04 15:22:11;;;;;;;8.50;7.35;;;8.40;99.90;;;;;;5062725;28;20202;-47
2022/02/04 15:24:39;;;;;;;12.82;8.57;;;8.50;99.90;;;;;;5062895;28;20501;-46
2022/02/04 15:27:06;;;;;;;11.07;7.10;;;8.50;99.90;;;;;;5062543;28;20383;-47
2022/02/04 15:29:38;;;;;;;10.30;7.60;;;8.60;99.90;;;;;;5062463;28;20200;-53
2022/02/04 15:32:06;;;;;;;9.38;8.15;;;8.70;99.90;;;;;;5061480;28;20200;-48
2022/02/04 15:34:34;;;;;;;14.52;8.18;;;8.70;99.90;;;;;;5062887;28;20220;-47
2022/02/04 15:37:02;;;;;;;15.63;10.35;;;8.60;99.90;;;;;;5063679;28;20235;-47
2022/02/04 15:39:30;;;;;;;11.38;7.43;;;8.40;99.90;;;;;;5062340;28;20203;-48
2022/02/04 15:42:04;;;;;;;12.43;7.75;;;8.50;99.90;;;;;;5062192;28;20237;-50
2022/02/04 15:52:49;;;;;;;11.15;8.07;;;8.10;99.90;;;;;;5062323;28;20199;-47
2022/02/04 15:58:18;;;;;;;12.60;7.82;;;8.00;99.90;;;;;;5062276;28;20637;-47
2022/02/04 16:01:00;;;;;;;8.93;7.60;;;8.10;99.90;;;;;;5062103;28;20283;-49
2022/02/04 16:03:40;;;;;;;13.85;8.70;;;8.20;99.90;;;;;;5062084;28;20364;-48
2022/02/04 16:06:11;;;;;;;11.25;8.07;;;8.20;99.90;;;;;;5061954;28;20321;-49
2022/02/04 16:08:38;;;;;;;15.65;7.50;;;8.10;99.90;;;;;;5061722;28;20204;-50
2022/02/04 16:11:19;;;;;;;10.45;7.65;;;8.00;99.90;;;;;;5060638;28;20209;-48
2022/02/04 16:13:56;;;;;;;10.50;7.45;;;8.00;99.90;;;;;;5061710;28;20227;-48
2022/02/04 16:16:28;;;;;;;8.80;6.47;;;7.90;99.90;;;;;;5061640;28;20250;-46
2022/02/04 16:19:14;;;;;;;11.68;7.68;;;7.90;99.90;;;;;;5061222;28;20202;-52
2022/02/04 16:22:01;;;;;;;14.82;8.52;;;7.80;99.90;;;;;;5061524;28;20226;-48
2022/02/04 16:29:45;;;;;;;9.35;6.97;;;7.80;99.90;;;;;;5061590;28;20381;-48
2022/02/04 16:32:13;;;;;;;10.45;6.10;;;7.80;99.90;;;;;;5060557;28;20246;-47
2022/02/04 16:34:40;;;;;;;8.48;6.25;;;7.80;99.90;;;;;;5060306;28;20536;-51
2022/02/04 16:37:17;;;;;;;7.13;6.38;;;7.70;99.90;;;;;;5060864;28;20219;-48
2022/02/04 16:39:47;;;;;;;11.23;6.32;;;7.70;99.90;;;;;;5061770;28;20204;-47
2022/02/04 16:42:15;;;;;;;8.38;6.75;;;7.70;99.90;;;;;;5061379;28;20204;-47
2022/02/04 16:44:42;;;;;;;12.43;5.88;;;7.60;99.90;;;;;;5060067;28;20283;-47
2022/02/04 16:47:15;;;;;;;11.77;7.28;;;7.70;99.90;;;;;;5061457;28;20266;-50
2022/02/04 16:49:42;;;;;;;9.52;5.50;;;7.60;99.90;;;;;;5061587;28;20200;-45
2022/02/04 16:52:10;;;;;;;10.93;7.80;;;7.50;99.90;;;;;;5060485;28;20525;-47
2022/02/04 16:54:38;;;;;;;9.88;6.72;;;7.60;99.90;;;;;;5061949;28;20235;-48
2022/02/04 16:57:06;;;;;;;11.93;6.93;;;7.70;99.90;;;;;;5061629;28;20227;-49
2022/02/04 16:59:33;;;;;;;9.25;6.55;;;7.70;99.90;;;;;;5061847;28;20196;-50
2022/02/04 17:02:03;;;;;;;9.15;7.35;;;7.90;99.90;;;;;;5062124;28;20214;-50
2022/02/04 17:04:30;;;;;;;9.68;7.10;;;7.90;99.90;;;;;;5061119;28;20250;-48
2022/02/04 17:07:02;;;;;;;10.02;7.05;;;7.90;99.90;;;;;;5060999;28;20239;-46
2022/02/04 17:09:37;;;;;;;14.85;8.35;;;7.80;99.90;;;;;;5060979;28;20211;-47
2022/02/04 17:12:08;;;;;;;13.15;7.95;;;7.90;99.90;;;;;;5061750;28;20209;-50
2022/02/04 17:14:35;;;;;;;11.40;7.05;;;7.90;99.90;;;;;;5063180;28;20219;-51
2022/02/04 17:17:05;;;;;;;10.73;8.45;;;7.90;99.90;;;;;;5062951;28;20354;-48
2022/02/04 17:19:50;;;;;;;11.25;7.25;;;7.80;99.90;;;;;;5061519;28;20199;-46
2022/02/04 17:22:17;;;;;;;13.60;7.53;;;7.60;99.90;;;;;;5061451;28;20242;-50
2022/02/04 17:24:48;;;;;;;12.48;6.75;;;7.50;99.90;;;;;;5062335;28;20254;-46
2022/02/04 17:27:16;;;;;;;11.30;7.95;;;7.40;99.90;;;;;;5061518;28;20206;-49
2022/02/04 17:29:44;;;;;;;8.52;6.80;;;7.20;99.90;;;;;;5060420;28;20513;-48
2022/02/04 17:32:12;;;;;;;9.00;6.88;;;7.40;99.90;;;;;;5060821;28;20253;-48
2022/02/04 17:34:43;;;;;;;12.45;7.80;;;7.40;99.90;;;;;;5060545;28;20227;-51
2022/02/04 17:37:10;;;;;;;11.85;7.20;;;7.40;99.90;;;;;;5060418;28;20603;-49
2022/02/04 17:39:38;;;;;;;9.00;6.90;;;7.40;99.90;;;;;;5060857;28;20376;-48
2022/02/04 17:42:06;;;;;;;12.50;7.35;;;7.20;99.90;;;;;;5060737;28;20241;-48
2022/02/04 17:44:33;;;;;;;9.30;6.75;;;7.20;99.90;;;;;;5063515;28;20233;-50
2022/02/04 17:47:01;;;;;;;9.80;6.93;;;7.20;99.90;;;;;;5064992;28;20521;-48
2022/02/04 17:49:45;;;;;;;9.95;7.60;;;7.30;99.90;;;;;;5064604;28;20555;-48
2022/02/04 17:52:23;;;;;;;7.45;6.47;;;7.20;99.90;;;;;;5064468;28;20222;-47
2022/02/04 17:54:59;;;;;;;11.95;7.55;;;7.10;99.90;;;;;;5064452;28;20227;-49
2022/02/04 18:03:06;;;;;;;11.57;6.97;;;7.10;99.90;;;;;;5063462;28;20215;-50
2022/02/04 18:05:54;;;;;;;8.82;7.28;;;7.10;99.90;;;;;;5064181;28;20200;-47
2022/02/04 18:08:23;;;;;;;8.07;7.18;;;7.10;99.90;;;;;;5065534;28;20202;-46
2022/02/04 18:10:50;;;;;;;16.38;9.50;;;7.10;99.90;;;;;;5065741;28;20367;-49
2022/02/04 18:13:18;;;;;;;14.98;8.32;;;7.10;99.90;;;;;;5067031;28;20437;-49
2022/02/04 18:15:46;;;;;;;13.82;7.60;;;7.10;99.90;;;;;;5067126;28;20202;-46
2022/02/04 18:18:16;;;;;;;8.40;6.60;;;7.10;99.90;;;;;;5068785;28;20203;-50
2022/02/04 18:20:44;;;;;;;9.35;6.45;;;7.00;99.90;;;;;;5067954;28;20208;-47
2022/02/04 18:23:20;;;;;;;10.50;7.13;;;7.20;99.90;;;;;;5067615;28;20250;-50
2022/02/04 18:25:48;;;;;;;7.43;5.90;;;7.20;99.90;;;;;;5068901;28;20203;-48
2022/02/04 18:28:17;;;;;;;10.50;6.97;;;7.10;99.90;;;;;;5066844;28;20236;-47
2022/02/04 18:30:44;;;;;;;10.70;8.80;;;7.20;99.90;;;;;;5063943;28;20282;-49
2022/02/04 18:33:15;;;;;;;9.40;5.38;;;7.30;99.90;;;;;;5063545;28;20223;-49
2022/02/04 18:35:45;;;;;;;8.57;4.85;;;7.30;99.90;;;;;;5063329;28;20389;-47
2022/02/04 18:38:24;;;;;;;7.63;5.20;;;7.40;99.90;;;;;;5063887;28;20191;-49
2022/02/04 18:43:52;;;;;;;10.23;5.38;;;7.90;99.90;;;;;;5063258;28;20533;-51
2022/02/04 18:46:47;;;;;;;10.05;5.03;;;8.00;99.90;;;;;;5063495;28;20229;-50
2022/02/04 18:52:06;;;;;;;7.85;5.47;;;7.90;99.90;;;;;;5063148;28;20206;-51
2022/02/04 18:57:22;;;;;;;7.40;5.50;;;7.90;99.90;;;;;;5062141;28;20227;-47
2022/02/04 18:59:58;;;;;;;6.40;5.57;;;7.90;99.90;;;;;;5063102;28;20577;-49
2022/02/04 19:02:29;;;;;;;15.07;8.05;;;7.70;99.90;;;;;;5062793;28;20196;-49
2022/02/04 19:05:03;;;;;;;9.25;5.70;;;7.50;99.90;;;;;;5062823;28;20215;-48
2022/02/04 19:07:42;;;;;;;8.85;6.20;;;7.50;99.90;;;;;;5062693;28;20237;-52
2022/02/04 19:10:10;;;;;;;6.97;5.40;;;7.30;99.90;;;;;;5063212;28;20375;-52
2022/02/04 19:12:55;;;;;;;7.13;6.03;;;7.30;99.90;;;;;;5062621;28;20204;-48
2022/02/04 19:15:33;;;;;;;13.15;7.38;;;7.20;99.90;;;;;;5062812;28;20219;-50
2022/02/04 19:18:05;;;;;;;9.10;7.13;;;7.10;99.90;;;;;;5062090;28;20227;-50
2022/02/04 19:20:39;;;;;;;5.05;4.55;;;7.10;99.90;;;;;;5062014;28;20418;-47
2022/02/04 19:23:10;;;;;;;8.05;5.28;;;7.20;99.90;;;;;;5062193;28;20199;-54
2022/02/04 19:25:40;;;;;;;5.43;4.88;;;7.30;99.90;;;;;;5062595;28;20231;-47
2022/02/04 19:28:09;;;;;;;6.75;4.18;;;7.40;99.90;;;;;;5061961;28;20206;-51
2022/02/04 19:30:46;;;;;;;7.53;4.13;;;7.50;99.90;;;;;;5062428;28;20200;-54
2022/02/04 19:33:16;;;;;;;8.65;5.55;;;7.40;99.90;;;;;;5062163;28;20245;-50
2022/02/04 19:35:45;;;;;;;11.60;6.63;;;7.50;99.90;;;;;;5062207;28;20199;-49
2022/02/04 19:38:12;;;;;;;10.95;5.50;;;7.40;99.90;;;;;;5061884;28;20230;-52
2022/02/04 19:40:42;;;;;;;20.60;7.72;;;7.50;99.90;;;;;;5061734;28;20233;-45
2022/02/04 19:43:13;;;;;;;10.27;6.03;;;7.50;99.90;;;;;;5061753;28;20203;-50
2022/02/04 19:45:48;;;;;;;11.45;6.80;;;7.50;99.90;;;;;;5061859;28;20502;-49
2022/02/04 19:48:36;;;;;;;9.13;6.93;;;7.50;99.90;;;;;;5061722;28;20200;-47
2022/02/04 20:23:38;;;;;;;10.30;5.53;;;7.70;99.90;;;;;;5061169;28;20222;-48